Time;durP1;ratioP1;P1;durP2;ratioP2;P2;SDS_P1;SDS_P2;PMS_P1;PMS_P2;Temp;Humidity;BMP_temperature;BMP_pressure;BME280_temperature;BME280_humidity;BME280_pressure;Samples;Min_cycle;Max_cycle;Signal;HPM_P1;HPM_P2
2021/12/30 00:00:31;;;;;;;2.75;1.45;;;;;;;5.69;100.00;94201.84;5018239;28;20354;-92
2021/12/30 00:02:57;;;;;;;2.90;1.60;;;;;;;5.59;100.00;94199.09;5018655;28;20124;-93
2021/12/30 00:05:22;;;;;;;2.75;1.60;;;;;;;5.49;100.00;94208.34;5018598;28;20427;-92
2021/12/30 00:07:47;;;;;;;2.33;1.77;;;;;;;5.33;100.00;94202.13;5018525;28;20038;-92
2021/12/30 00:10:14;;;;;;;3.78;1.85;;;;;;;5.16;100.00;94204.72;5018148;28;20120;-92
2021/12/30 00:12:40;;;;;;;4.03;1.58;;;;;;;5.08;100.00;94215.53;5018597;28;20088;-91
2021/12/30 00:15:07;;;;;;;4.88;1.77;;;;;;;5.04;100.00;94214.44;5018344;28;20029;-92
2021/12/30 00:17:33;;;;;;;3.90;1.50;;;;;;;5.17;100.00;94226.31;5018389;28;20026;-92
2021/12/30 00:19:59;;;;;;;2.95;1.48;;;;;;;5.24;100.00;94222.53;5018350;28;20072;-94
2021/12/30 00:22:24;;;;;;;2.22;1.25;;;;;;;5.28;100.00;94215.06;5017640;28;20029;-92
2021/12/30 00:24:50;;;;;;;2.35;1.30;;;;;;;5.30;100.00;94220.78;5019313;28;20041;-92
2021/12/30 00:27:15;;;;;;;2.17;1.60;;;;;;;5.12;100.00;94218.44;5019389;28;20045;-92
2021/12/30 00:29:41;;;;;;;4.50;1.83;;;;;;;4.88;100.00;94216.78;5019160;28;20478;-93
2021/12/30 00:32:07;;;;;;;4.05;1.70;;;;;;;4.71;100.00;94219.34;5017737;28;20050;-92
2021/12/30 00:34:32;;;;;;;4.95;1.80;;;;;;;4.63;100.00;94211.94;5018327;28;20033;-93
2021/12/30 00:36:58;;;;;;;4.57;1.80;;;;;;;4.58;100.00;94214.44;5017979;28;20447;-92
2021/12/30 00:39:24;;;;;;;3.90;1.90;;;;;;;4.85;100.00;94216.47;5018628;28;20026;-92
2021/12/30 00:41:49;;;;;;;4.07;1.60;;;;;;;4.87;100.00;94215.19;5001453;28;20427;-92
2021/12/30 00:44:14;;;;;;;2.90;1.25;;;;;;;5.42;100.00;94210.31;5017837;28;20029;-92
2021/12/30 00:46:40;;;;;;;2.63;1.52;;;;;;;5.28;100.00;94220.25;5001763;28;20029;-91
2021/12/30 00:49:06;;;;;;;5.28;1.77;;;;;;;5.13;100.00;94210.41;5001929;28;20026;-93
2021/12/30 00:51:31;;;;;;;3.40;1.50;;;;;;;4.95;100.00;94214.03;5017388;28;20514;-92
2021/12/30 00:53:57;;;;;;;2.72;1.55;;;;;;;4.83;100.00;94215.91;5017698;28;20053;-92
2021/12/30 00:56:22;;;;;;;3.35;1.50;;;;;;;4.87;100.00;94214.41;5001573;28;20075;-92
2021/12/30 00:58:48;;;;;;;3.30;1.60;;;;;;;4.87;100.00;94210.00;5001439;28;20446;-92
2021/12/30 01:01:13;;;;;;;3.72;1.88;;;;;;;4.90;100.00;94206.16;5017552;28;20030;-93
2021/12/30 01:03:39;;;;;;;2.50;1.25;;;;;;;4.95;100.00;94214.81;5017628;28;20199;-92
2021/12/30 01:06:04;;;;;;;4.60;1.77;;;;;;;5.11;100.00;94216.88;5017387;28;20029;-92
2021/12/30 01:08:30;;;;;;;4.43;2.00;;;;;;;5.24;100.00;94209.53;5017406;28;20033;-92
2021/12/30 01:10:56;;;;;;;2.92;1.70;;;;;;;5.19;100.00;94213.88;5017367;28;20030;-91
2021/12/30 01:13:27;;;;;;;3.58;1.38;;;;;;;5.02;100.00;94209.47;5017796;28;20426;-92
2021/12/30 01:16:00;;;;;;;2.58;1.48;;;;;;;5.01;100.00;94202.69;5001955;28;20454;-92
2021/12/30 01:18:54;;;;;;;7.25;1.75;;;;;;;4.94;100.00;94194.25;5001819;28;20420;-92
2021/12/30 01:21:22;;;;;;;2.58;1.50;;;;;;;5.20;100.00;94207.66;5003692;28;20092;-92
2021/12/30 01:23:47;;;;;;;2.67;1.40;;;;;;;5.33;100.00;94219.53;5017191;28;20076;-92
2021/12/30 01:26:13;;;;;;;2.20;1.35;;;;;;;5.35;100.00;94214.91;5000958;28;20051;-93
2021/12/30 01:28:40;;;;;;;2.47;1.40;;;;;;;5.22;100.00;94210.78;5000900;28;20041;-92
2021/12/30 01:31:06;;;;;;;3.22;1.60;;;;;;;5.15;100.00;94204.97;5016850;28;20029;-92
2021/12/30 01:33:31;;;;;;;2.75;1.50;;;;;;;5.25;100.00;94215.53;5031275;28;20362;-92
2021/12/30 01:35:57;;;;;;;2.30;1.48;;;;;;;5.26;100.00;94211.91;5036369;28;20033;-93
2021/12/30 01:38:23;;;;;;;2.60;1.48;;;;;;;5.32;100.00;94220.56;5020423;28;20029;-93
2021/12/30 01:40:50;;;;;;;4.00;1.58;;;;;;;5.32;100.00;94230.97;5019924;28;20330;-92
2021/12/30 01:43:17;;;;;;;2.47;1.27;;;;;;;5.47;100.00;94220.78;5037686;28;20060;-92
2021/12/30 01:45:43;;;;;;;2.25;1.23;;;;;;;5.38;100.00;94230.00;5019933;28;20037;-92
2021/12/30 01:48:09;;;;;;;2.20;1.13;;;;;;;5.16;100.00;94229.94;5036955;28;20426;-92
2021/12/30 01:50:35;;;;;;;2.10;1.40;;;;;;;5.05;100.00;94234.19;5037042;28;20057;-92
2021/12/30 01:53:03;;;;;;;2.78;1.58;;;;;;;5.30;100.00;94230.38;5020087;28;20087;-91
2021/12/30 01:55:30;;;;;;;1.67;1.17;;;;;;;5.39;100.00;94236.78;5020414;28;20039;-93
2021/12/30 01:58:38;;;;;;;3.92;1.30;;;;;;;5.30;100.00;94230.38;5020221;28;20119;-91
2021/12/30 02:01:04;;;;;;;1.80;1.15;;;;;;;5.32;100.00;94223.94;5035990;28;20046;-93
2021/12/30 02:03:29;;;;;;;2.78;1.38;;;;;;;5.41;100.00;94219.13;5020223;28;20033;-92
2021/12/30 02:05:55;;;;;;;2.38;1.30;;;;;;;5.49;100.00;94223.13;5020349;28;20036;-92
2021/12/30 02:08:20;;;;;;;3.70;1.55;;;;;;;5.70;100.00;94226.03;5036149;28;20079;-93
2021/12/30 02:10:48;;;;;;;2.10;1.02;;;;;;;5.42;100.00;94231.09;5035878;28;20128;-92
2021/12/30 02:13:15;;;;;;;3.17;1.20;;;;;;;5.14;100.00;94232.75;5019840;28;20037;-92
2021/12/30 02:15:41;;;;;;;1.88;1.13;;;;;;;5.00;100.00;94240.06;5020060;28;20422;-92
2021/12/30 02:18:07;;;;;;;1.02;0.90;;;;;;;5.09;100.00;94243.88;5037097;28;20025;-91
2021/12/30 02:20:37;;;;;;;4.05;1.25;;;;;;;5.20;100.00;94237.03;5035536;28;20496;-92
2021/12/30 02:23:04;;;;;;;2.38;1.33;;;;;;;5.25;100.00;94244.09;5037024;28;20373;-91
2021/12/30 02:25:29;;;;;;;2.50;1.48;;;;;;;5.33;100.00;94248.13;5036943;28;20029;-93
2021/12/30 02:27:55;;;;;;;1.95;1.27;;;;;;;5.28;100.00;94251.41;5035863;28;20032;-93
2021/12/30 02:30:20;;;;;;;1.45;1.08;;;;;;;5.13;100.00;94254.56;5019186;28;20035;-92
2021/12/30 02:32:46;;;;;;;3.95;1.30;;;;;;;5.07;100.00;94260.69;5036849;28;20030;-92
2021/12/30 02:35:11;;;;;;;3.05;1.48;;;;;;;5.17;100.00;94260.88;5035872;28;20083;-93
2021/12/30 02:37:37;;;;;;;1.90;1.17;;;;;;;5.32;100.00;94268.09;5036279;28;20029;-93
2021/12/30 02:40:03;;;;;;;3.33;1.10;;;;;;;5.50;100.00;94267.09;5035564;28;20032;-92
2021/12/30 02:42:28;;;;;;;1.90;1.10;;;;;;;5.45;100.00;94272.22;5035224;28;20109;-93
2021/12/30 02:44:53;;;;;;;2.85;1.38;;;;;;;5.45;100.00;94268.81;5036358;28;20120;-93
2021/12/30 02:47:19;;;;;;;2.95;1.30;;;;;;;5.15;100.00;94278.47;5019101;28;20036;-92
2021/12/30 02:49:45;;;;;;;2.42;1.25;;;;;;;5.07;100.00;94281.47;5036597;28;20112;-92
2021/12/30 02:52:10;;;;;;;2.65;1.15;;;;;;;5.26;100.00;94278.66;5035182;28;20051;-93
2021/12/30 02:54:39;;;;;;;6.68;1.15;;;;;;;5.51;100.00;94271.25;5019183;28;20124;-92
2021/12/30 02:57:05;;;;;;;2.00;1.23;;;;;;;5.24;100.00;94278.91;5019203;28;20035;-92
2021/12/30 02:59:30;;;;;;;4.30;1.60;;;;;;;5.05;100.00;94284.28;5035420;28;20041;-92
2021/12/30 03:01:56;;;;;;;1.60;0.90;;;;;;;4.83;100.00;94286.78;5035615;28;20079;-92
2021/12/30 03:04:21;;;;;;;2.40;1.10;;;;;;;4.61;100.00;94284.03;5019435;28;20026;-92
2021/12/30 03:06:49;;;;;;;3.33;1.40;;;;;;;5.14;100.00;94282.09;5019104;28;20120;-92
2021/12/30 03:09:15;;;;;;;2.72;1.30;;;;;;;5.09;100.00;94282.03;5019303;28;20030;-92
2021/12/30 03:11:40;;;;;;;3.80;1.15;;;;;;;4.96;100.00;94277.91;5018983;28;20029;-93
2021/12/30 03:14:06;;;;;;;1.27;1.00;;;;;;;4.99;100.00;94276.66;5019333;28;20029;-93
2021/12/30 03:16:35;;;;;;;6.68;1.42;;;;;;;4.89;100.00;94275.47;5019320;28;20033;-92
2021/12/30 03:19:00;;;;;;;1.92;1.30;;;;;;;4.68;100.00;94284.69;5035478;28;20030;-92
2021/12/30 03:21:26;;;;;;;7.07;1.60;;;;;;;4.45;100.00;94291.53;5018875;28;20025;-92
2021/12/30 03:23:53;;;;;;;2.25;1.35;;;;;;;4.50;100.00;94303.81;5035208;28;20029;-93
2021/12/30 03:26:20;;;;;;;2.10;1.40;;;;;;;4.45;100.00;94294.13;5035147;28;20426;-92
2021/12/30 03:28:47;;;;;;;3.55;1.52;;;;;;;4.67;100.00;94293.50;5035203;28;20053;-93
2021/12/30 03:31:14;;;;;;;2.63;1.45;;;;;;;4.67;100.00;94312.44;5018521;28;20112;-92
2021/12/30 03:33:40;;;;;;;2.40;1.45;;;;;;;4.75;100.00;94313.13;5019175;28;20091;-93
2021/12/30 03:36:07;;;;;;;4.30;1.30;;;;;;;4.71;100.00;94323.16;5035040;28;20029;-92
2021/12/30 03:38:35;;;;;;;2.20;1.40;;;;;;;4.71;100.00;94314.56;5035024;28;20339;-92
2021/12/30 03:41:01;;;;;;;3.85;1.63;;;;;;;4.52;100.00;94318.16;5018166;28;20037;-92
2021/12/30 03:43:28;;;;;;;4.20;1.80;;;;;;;4.64;100.00;94333.69;5034975;28;20025;-92
2021/12/30 03:45:53;;;;;;;5.85;2.05;;;;;;;4.66;100.00;94328.25;5018453;28;20029;-92
2021/12/30 03:48:19;;;;;;;5.57;1.80;;;;;;;4.70;100.00;94325.97;5018998;28;20032;-93
2021/12/30 03:50:45;;;;;;;2.75;1.33;;;;;;;4.75;100.00;94320.91;5018677;28;20075;-92
2021/12/30 03:53:15;;;;;;;1.35;1.00;;;;;;;4.72;100.00;94326.53;5018522;28;20061;-93
2021/12/30 03:55:41;;;;;;;4.05;1.13;;;;;;;4.97;100.00;94325.44;5035042;28;20037;-92
2021/12/30 03:58:07;;;;;;;2.45;1.13;;;;;;;4.70;100.00;94325.97;5036992;28;20025;-92
2021/12/30 04:00:33;;;;;;;2.47;1.30;;;;;;;4.65;100.00;94332.66;5038154;28;20030;-92
2021/12/30 04:02:59;;;;;;;2.50;1.40;;;;;;;4.64;100.00;94332.88;5038370;28;20033;-92
2021/12/30 04:05:25;;;;;;;3.00;1.60;;;;;;;4.77;100.00;94343.00;5038376;28;20076;-92
2021/12/30 04:07:51;;;;;;;2.40;1.52;;;;;;;4.75;100.00;94344.25;5038311;28;20029;-92
2021/12/30 04:10:19;;;;;;;4.15;1.73;;;;;;;4.60;100.00;94345.53;5038139;28;20034;-92
2021/12/30 04:12:45;;;;;;;3.90;1.85;;;;;;;4.64;100.00;94344.06;5038412;28;20036;-91
2021/12/30 04:15:11;;;;;;;3.03;1.63;;;;;;;5.01;100.00;94355.09;5038315;28;20025;-93
2021/12/30 04:17:37;;;;;;;2.97;1.63;;;;;;;5.04;100.00;94354.66;5038162;28;20029;-92
2021/12/30 04:20:07;;;;;;;3.85;1.30;;;;;;;5.10;100.00;94356.31;5038462;28;20025;-92
2021/12/30 04:22:34;;;;;;;3.75;2.00;;;;;;;4.92;100.00;94360.69;5038204;28;20434;-93
2021/12/30 04:24:59;;;;;;;1.60;1.10;;;;;;;4.58;100.00;94359.75;5038158;28;20356;-93
2021/12/30 04:27:25;;;;;;;6.28;1.50;;;;;;;4.56;100.00;94361.78;5038236;28;20127;-92
2021/12/30 04:29:50;;;;;;;4.88;1.67;;;;;;;4.32;100.00;94360.03;5039239;28;20041;-93
2021/12/30 04:32:16;;;;;;;3.50;1.55;;;;;;;4.49;100.00;94364.50;5037570;28;20103;-93
2021/12/30 04:34:41;;;;;;;3.60;1.30;;;;;;;4.58;100.00;94367.53;5039025;28;20065;-91
2021/12/30 04:37:07;;;;;;;3.97;1.38;;;;;;;4.61;100.00;94377.47;5039083;28;20033;-93
2021/12/30 04:39:32;;;;;;;2.85;1.65;;;;;;;4.61;100.00;94373.06;5037910;28;20033;-93
2021/12/30 04:41:58;;;;;;;2.35;1.50;;;;;;;4.82;100.00;94373.47;5043830;28;20031;-92
2021/12/30 04:44:25;;;;;;;3.15;1.30;;;;;;;4.62;100.00;94376.44;5041024;28;20040;-93
2021/12/30 04:46:50;;;;;;;2.88;1.60;;;;;;;4.43;100.00;94388.75;5048535;28;20037;-92
2021/12/30 04:49:16;;;;;;;3.25;2.03;;;;;;;4.36;100.00;94387.09;5038896;28;20041;-92
2021/12/30 04:51:41;;;;;;;2.78;1.67;;;;;;;4.32;100.00;94401.53;5038361;28;20346;-93
2021/12/30 04:54:07;;;;;;;4.13;1.65;;;;;;;4.30;100.00;94400.94;5038693;28;20033;-93
2021/12/30 04:56:32;;;;;;;3.00;1.45;;;;;;;4.22;100.00;94398.72;5039441;28;20099;-92
2021/12/30 04:58:58;;;;;;;4.40;1.50;;;;;;;4.30;100.00;94411.31;5057699;28;20052;-92
2021/12/30 05:01:23;;;;;;;3.53;1.73;;;;;;;4.36;100.00;94412.22;5058313;28;20033;-92
2021/12/30 05:03:49;;;;;;;3.08;1.23;;;;;;;4.29;100.00;94412.34;5057436;28;20036;-93
2021/12/30 05:06:14;;;;;;;3.95;1.60;;;;;;;4.48;100.00;94414.84;5027627;28;20176;-93
2021/12/30 05:08:40;;;;;;;2.33;1.33;;;;;;;4.58;100.00;94414.25;5001851;28;20038;-93
2021/12/30 05:11:05;;;;;;;2.17;1.38;;;;;;;4.71;100.00;94419.19;5017529;28;20038;-92
2021/12/30 05:13:31;;;;;;;2.60;1.60;;;;;;;4.71;100.00;94415.81;5001321;28;20030;-93
2021/12/30 05:15:57;;;;;;;2.00;1.20;;;;;;;4.67;100.00;94424.06;5001533;28;20117;-92
2021/12/30 05:18:30;;;;;;;2.45;1.23;;;;;;;4.88;100.00;94431.47;5017575;28;20030;-92
2021/12/30 05:20:56;;;;;;;3.80;1.48;;;;;;;5.01;100.00;94428.59;5001885;28;20044;-92
2021/12/30 05:23:21;;;;;;;3.55;1.50;;;;;;;5.21;100.00;94443.78;5001449;28;20030;-93
2021/12/30 05:25:47;;;;;;;3.15;1.40;;;;;;;5.04;100.00;94438.53;5001100;28;20033;-93
2021/12/30 05:28:12;;;;;;;2.13;1.35;;;;;;;5.11;100.00;94448.78;5017650;28;20069;-92
2021/12/30 05:30:38;;;;;;;2.67;1.40;;;;;;;5.24;100.00;94450.34;5000882;28;20026;-92
2021/12/30 05:33:04;;;;;;;2.97;1.60;;;;;;;5.10;100.00;94457.59;5000938;28;20025;-92
2021/12/30 05:35:29;;;;;;;4.20;1.60;;;;;;;4.97;100.00;94463.84;5000791;28;20490;-93
2021/12/30 05:37:55;;;;;;;2.35;1.15;;;;;;;5.07;100.00;94460.66;5000792;28;20470;-92
2021/12/30 05:40:22;;;;;;;1.65;0.98;;;;;;;4.88;100.00;94460.81;5000716;28;20022;-93
2021/12/30 05:42:47;;;;;;;2.05;1.20;;;;;;;4.94;100.00;94467.69;5001084;28;20450;-92
2021/12/30 05:45:16;;;;;;;3.30;1.30;;;;;;;4.98;100.00;94464.63;5001088;28;20030;-92
2021/12/30 05:47:46;;;;;;;2.72;1.48;;;;;;;4.97;100.00;94463.84;5001134;28;20026;-92
2021/12/30 05:50:13;;;;;;;3.53;1.20;;;;;;;4.87;100.00;94464.41;5016424;28;20041;-92
2021/12/30 05:52:38;;;;;;;1.92;1.13;;;;;;;4.74;100.00;94465.44;5016741;28;20025;-93
2021/12/30 05:55:08;;;;;;;2.13;1.02;;;;;;;4.72;100.00;94464.91;5017141;28;20084;-93
2021/12/30 05:57:33;;;;;;;8.65;1.17;;;;;;;4.90;100.00;94469.16;5000553;28;20029;-93
2021/12/30 06:00:00;;;;;;;3.28;1.30;;;;;;;5.05;100.00;94466.06;5017730;28;20328;-92
2021/12/30 06:02:26;;;;;;;2.65;1.27;;;;;;;5.05;100.00;94470.50;5017540;28;20415;-92
2021/12/30 06:04:51;;;;;;;3.40;1.20;;;;;;;5.05;100.00;94479.06;5017664;28;20064;-93
2021/12/30 06:07:17;;;;;;;2.00;1.00;;;;;;;4.89;100.00;94477.97;5017646;28;20029;-93
2021/12/30 06:09:43;;;;;;;1.98;1.00;;;;;;;4.84;100.00;94483.03;5017483;28;20033;-93
2021/12/30 06:12:09;;;;;;;2.78;1.27;;;;;;;4.90;100.00;94489.94;5017217;28;20350;-93
2021/12/30 06:14:34;;;;;;;5.68;1.20;;;;;;;4.61;100.00;94499.44;5017499;28;20113;-93
2021/12/30 06:17:00;;;;;;;1.35;1.00;;;;;;;4.74;100.00;94501.03;5016316;28;20120;-93
2021/12/30 06:19:25;;;;;;;1.38;0.80;;;;;;;5.23;100.00;94508.50;5017370;28;20087;-93
2021/12/30 06:21:51;;;;;;;2.55;1.00;;;;;;;5.15;100.00;94511.47;5016765;28;20022;-93
2021/12/30 06:24:16;;;;;;;1.40;1.00;;;;;;;5.04;100.00;94523.47;5016534;28;20025;-93
2021/12/30 06:26:42;;;;;;;1.85;1.00;;;;;;;4.72;100.00;94521.19;5017178;28;20037;-93
2021/12/30 06:29:07;;;;;;;1.67;1.10;;;;;;;4.70;100.00;94523.22;5017173;28;20029;-92
2021/12/30 06:31:33;;;;;;;2.08;1.00;;;;;;;4.71;100.00;94522.22;5017011;28;20030;-93
2021/12/30 06:33:58;;;;;;;1.10;0.70;;;;;;;4.96;100.00;94514.22;5017304;28;20453;-92
2021/12/30 06:36:24;;;;;;;1.77;0.82;;;;;;;5.65;100.00;94517.88;5017205;28;20029;-92
2021/12/30 06:38:50;;;;;;;1.48;0.90;;;;;;;5.38;100.00;94521.00;4999793;28;20059;-93
2021/12/30 06:41:16;;;;;;;1.65;0.80;;;;;;;5.30;100.00;94524.75;5015591;28;20080;-93
2021/12/30 06:43:41;;;;;;;1.35;0.80;;;;;;;5.49;100.00;94530.59;5015828;28;20444;-93
2021/12/30 06:46:09;;;;;;;2.22;1.02;;;;;;;5.64;100.00;94537.09;5015919;28;20049;-92
2021/12/30 06:48:35;;;;;;;1.25;0.63;;;;;;;5.45;100.00;94539.06;5015753;28;20029;-90
2021/12/30 06:51:03;;;;;;;1.23;0.88;;;;;;;5.28;100.00;94541.56;5015252;28;20029;-90
2021/12/30 06:53:29;;;;;;;0.98;0.73;;;;;;;5.34;100.00;94541.44;5016884;28;20084;-90
2021/12/30 06:55:55;;;;;;;2.83;1.10;;;;;;;5.14;100.00;94543.66;5015544;28;20034;-90
2021/12/30 06:58:20;;;;;;;5.20;0.70;;;;;;;5.01;100.00;94544.66;5017753;28;20072;-90
2021/12/30 07:00:48;;;;;;;1.20;0.93;;;;;;;5.07;100.00;94552.34;5035619;28;20053;-93
2021/12/30 07:03:15;;;;;;;1.70;0.82;;;;;;;5.37;100.00;94561.00;5019216;28;20033;-93
2021/12/30 07:05:41;;;;;;;0.98;0.70;;;;;;;5.50;100.00;94563.34;5019180;28;20435;-92
2021/12/30 07:08:06;;;;;;;1.38;0.80;;;;;;;5.60;100.00;94572.38;5035394;28;20086;-92
2021/12/30 07:10:32;;;;;;;0.98;0.70;;;;;;;5.68;100.00;94579.03;5019088;28;20037;-91
2021/12/30 07:12:57;;;;;;;2.63;0.75;;;;;;;5.82;100.00;94588.13;5019395;28;20029;-93
2021/12/30 07:15:23;;;;;;;1.17;0.70;;;;;;;5.75;100.00;94590.88;5019160;28;20033;-92
2021/12/30 07:17:49;;;;;;;2.25;0.70;;;;;;;6.06;100.00;94607.06;5019328;28;20063;-92
2021/12/30 07:20:15;;;;;;;0.85;0.63;;;;;;;6.50;100.00;94596.09;5019063;28;20124;-92
2021/12/30 07:22:40;;;;;;;0.95;0.80;;;;;;;6.51;100.00;94613.28;5035192;28;20033;-92
2021/12/30 07:25:07;;;;;;;1.52;0.90;;;;;;;6.53;100.00;94623.47;5019145;28;20029;-92
2021/12/30 07:27:32;;;;;;;4.57;1.30;;;;;;;6.63;100.00;94620.25;5036552;28;20025;-92
2021/12/30 07:29:59;;;;;;;3.05;1.25;;;;;;;6.53;100.00;94618.28;5036305;28;20041;-92
2021/12/30 07:32:25;;;;;;;2.97;1.00;;;;;;;6.60;100.00;94629.34;5036862;28;20374;-92
2021/12/30 07:34:51;;;;;;;1.35;0.90;;;;;;;6.64;100.00;94640.84;5040139;28;20049;-92
2021/12/30 07:37:17;;;;;;;2.38;1.13;;;;;;;6.39;100.00;94645.63;5039534;28;20025;-92
2021/12/30 07:39:43;;;;;;;1.65;1.10;;;;;;;6.25;100.00;94647.72;5038919;28;20112;-92
2021/12/30 07:42:08;;;;;;;1.60;1.00;;;;;;;6.17;100.00;94651.47;5038533;28;20036;-93
2021/12/30 07:44:34;;;;;;;3.92;1.17;;;;;;;5.82;100.00;94665.34;5048020;28;20032;-91
2021/12/30 07:46:59;;;;;;;2.00;1.42;;;;;;;5.70;100.00;94666.13;5059228;28;20033;-92
2021/12/30 07:49:25;;;;;;;2.00;1.10;;;;;;;5.65;100.00;94659.03;5059090;28;20024;-92
2021/12/30 07:51:50;;;;;;;2.17;1.27;;;;;;;5.63;100.00;94665.50;5058121;28;20036;-92
2021/12/30 07:54:16;;;;;;;1.98;1.20;;;;;;;5.86;100.00;94666.44;5059808;28;20029;-93
2021/12/30 07:56:41;;;;;;;2.17;1.17;;;;;;;6.10;100.00;94669.03;5058453;28;20029;-92
2021/12/30 07:59:07;;;;;;;1.90;0.95;;;;;;;6.26;100.00;94670.13;5059597;28;20442;-92
2021/12/30 08:01:32;;;;;;;2.17;1.02;;;;;;;6.19;100.00;94672.84;5057833;28;20071;-92
2021/12/30 08:03:58;;;;;;;2.00;1.10;;;;;;;6.11;100.00;94668.00;5046620;28;20036;-91
2021/12/30 08:06:27;;;;;;;1.60;1.00;;;;;;;6.05;100.00;94670.53;5038956;28;20025;-92
2021/12/30 08:08:52;;;;;;;2.03;1.10;;;;;;;6.22;100.00;94683.56;5038356;28;20021;-90
2021/12/30 08:11:18;;;;;;;1.30;1.00;;;;;;;6.42;100.00;94679.78;5037832;28;20395;-91
2021/12/30 08:13:43;;;;;;;3.20;1.02;;;;;;;6.55;100.00;94683.13;5022132;28;20438;-91
2021/12/30 08:16:09;;;;;;;1.85;1.00;;;;;;;6.63;100.00;94690.53;5022105;28;20421;-91
2021/12/30 08:18:34;;;;;;;1.73;0.90;;;;;;;6.79;100.00;94694.22;5022095;28;20036;-92
2021/12/30 08:21:00;;;;;;;1.55;0.82;;;;;;;7.02;100.00;94698.50;5021732;28;20040;-92
2021/12/30 08:23:25;;;;;;;1.35;0.85;;;;;;;7.20;100.00;94700.09;5021930;28;20033;-92
2021/12/30 08:25:51;;;;;;;1.58;0.95;;;;;;;7.36;100.00;94697.72;5022022;28;20040;-91
2021/12/30 08:28:21;;;;;;;1.83;0.98;;;;;;;7.45;100.00;94700.69;5038025;28;20079;-92
2021/12/30 08:30:46;;;;;;;2.83;1.05;;;;;;;7.55;100.00;94690.41;5021483;28;20034;-93
2021/12/30 08:33:12;;;;;;;3.20;1.00;;;;;;;7.63;100.00;94702.25;5021607;28;20342;-91
2021/12/30 08:35:38;;;;;;;1.35;0.80;;;;;;;7.66;100.00;94690.53;5037826;28;20040;-91
2021/12/30 08:38:03;;;;;;;1.25;0.80;;;;;;;7.73;100.00;94699.78;5039012;28;20025;-91
2021/12/30 08:40:30;;;;;;;1.65;0.73;;;;;;;8.00;100.00;94699.06;5020968;28;20196;-91
2021/12/30 08:42:55;;;;;;;1.85;0.90;;;;;;;7.97;100.00;94704.78;5037790;28;20025;-91
2021/12/30 08:45:24;;;;;;;1.05;0.82;;;;;;;7.78;100.00;94706.88;5021662;28;20076;-91
2021/12/30 08:47:49;;;;;;;2.08;0.88;;;;;;;7.66;100.00;94704.38;5029399;28;20026;-92
2021/12/30 08:50:16;;;;;;;1.58;0.85;;;;;;;7.66;100.00;94709.59;5036258;28;20112;-92
2021/12/30 08:52:43;;;;;;;1.48;0.80;;;;;;;7.73;100.00;94707.59;5037506;28;20021;-92
2021/12/30 08:55:09;;;;;;;1.30;0.80;;;;;;;8.03;100.00;94706.44;5037395;28;20075;-92
2021/12/30 08:57:40;;;;;;;1.75;1.00;;;;;;;8.11;100.00;94707.84;5036949;28;20032;-92
2021/12/30 09:00:11;;;;;;;3.28;0.90;;;;;;;8.21;100.00;94704.56;5021746;28;20037;-92
2021/12/30 09:02:37;;;;;;;1.30;0.88;;;;;;;8.52;100.00;94706.72;5037308;28;20025;-93
2021/12/30 09:05:03;;;;;;;3.80;1.48;;;;;;;8.68;100.00;94705.06;5024655;28;20033;-93
2021/12/30 09:07:29;;;;;;;1.58;0.82;;;;;;;8.75;100.00;94710.88;5001409;28;20030;-92
2021/12/30 09:09:54;;;;;;;2.70;1.40;;;;;;;8.92;100.00;94716.00;5001206;28;20025;-92
2021/12/30 09:12:21;;;;;;;2.83;1.83;;;;;;;9.17;100.00;94719.88;5018171;28;20443;-92
2021/12/30 09:14:46;;;;;;;9.57;1.75;;;;;;;9.32;100.00;94727.03;5018621;28;20428;-93
2021/12/30 09:17:12;;;;;;;3.35;1.27;;;;;;;9.65;100.00;94724.41;5017739;28;20037;-92
2021/12/30 09:19:37;;;;;;;3.40;1.50;;;;;;;9.91;100.00;94733.22;5018403;28;20030;-92
2021/12/30 09:22:03;;;;;;;4.57;1.50;;;;;;;10.18;100.00;94733.06;5018006;28;20026;-92
2021/12/30 09:24:30;;;;;;;3.25;1.60;;;;;;;10.20;100.00;94735.44;5001351;28;20030;-92
2021/12/30 09:26:56;;;;;;;2.58;1.30;;;;;;;9.98;100.00;94759.16;5017003;28;20029;-93
2021/12/30 09:29:55;;;;;;;1.75;1.02;;;;;;;9.43;100.00;94754.09;5018202;28;20461;-92
2021/12/30 09:32:21;;;;;;;2.00;1.05;;;;;;;9.10;100.00;94759.28;5016798;28;20038;-91
2021/12/30 09:34:46;;;;;;;3.00;0.85;;;;;;;8.74;100.00;94767.56;5017034;28;20099;-91
2021/12/30 09:37:12;;;;;;;2.03;1.00;;;;;;;8.70;100.00;94768.31;5018105;28;20045;-91
2021/12/30 09:39:38;;;;;;;2.53;1.27;;;;;;;8.75;100.00;94770.97;5016962;28;20355;-91
2021/12/30 09:42:04;;;;;;;2.55;0.93;;;;;;;8.82;100.00;94768.16;5016481;28;20049;-93
2021/12/30 09:44:29;;;;;;;0.93;0.70;;;;;;;8.96;100.00;94769.34;5016863;28;20327;-93
2021/12/30 09:46:55;;;;;;;1.77;0.98;;;;;;;8.93;100.00;94766.47;5016846;28;20040;-93
2021/12/30 09:49:27;;;;;;;1.25;0.77;;;;;;;8.99;100.00;94775.91;5000675;28;20328;-92
2021/12/30 09:51:52;;;;;;;1.95;1.17;;;;;;;9.12;100.00;94772.13;5000255;28;20112;-92
2021/12/30 09:54:18;;;;;;;6.35;0.93;;;;;;;9.10;100.00;94769.75;5016614;28;20036;-92
2021/12/30 09:56:44;;;;;;;1.77;1.02;;;;;;;9.15;100.00;94782.09;5017145;28;20030;-93
2021/12/30 09:59:11;;;;;;;1.35;0.80;;;;;;;9.26;100.00;94778.53;5016606;28;20061;-92
2021/12/30 10:01:38;;;;;;;1.70;0.98;;;;;;;9.37;100.00;94768.94;5016525;28;20026;-92
2021/12/30 10:04:05;;;;;;;2.03;1.10;;;;;;;9.47;100.00;94773.47;5017567;28;20026;-92
2021/12/30 10:06:33;;;;;;;1.45;0.95;;;;;;;9.61;100.00;94777.22;5016504;28;20347;-93
2021/12/30 10:09:02;;;;;;;1.42;0.70;;;;;;;9.70;100.00;94774.94;5017885;28;20025;-93
2021/12/30 10:11:28;;;;;;;1.05;0.73;;;;;;;9.78;100.00;94786.75;5000048;28;20036;-92
2021/12/30 10:13:56;;;;;;;7.93;1.50;;;;;;;9.91;100.00;94782.94;5020634;28;20025;-93
2021/12/30 10:16:22;;;;;;;2.15;1.10;;;;;;;9.92;100.00;94781.09;5036035;28;20029;-92
2021/12/30 10:19:25;;;;;;;1.55;1.00;;;;;;;9.99;100.00;94785.06;5036076;28;20332;-92
2021/12/30 10:21:50;;;;;;;3.03;0.98;;;;;;;10.05;100.00;94785.88;5036749;28;20112;-93
2021/12/30 10:24:17;;;;;;;3.13;1.20;;;;;;;10.11;100.00;94771.00;5037139;28;20450;-94
2021/12/30 10:26:51;;;;;;;3.15;1.17;;;;;;;10.03;100.00;94770.41;5036913;28;20350;-91
2021/12/30 10:29:17;;;;;;;1.90;1.02;;;;;;;10.07;100.00;94775.16;5020056;28;20029;-92
2021/12/30 10:31:44;;;;;;;1.42;0.85;;;;;;;10.01;100.00;94772.50;5018969;28;20044;-92
2021/12/30 10:34:10;;;;;;;1.80;0.90;;;;;;;9.95;100.00;94768.28;5024705;28;20051;-91
2021/12/30 10:36:41;;;;;;;2.70;1.08;;;;;;;10.02;100.00;94768.06;5015926;28;20030;-93
2021/12/30 10:39:22;;;;;;;2.03;0.95;;;;;;;10.18;100.00;94774.97;5016384;28;20033;-91
2021/12/30 10:41:50;;;;;;;2.28;1.30;;;;;;;10.35;100.00;94770.59;5020855;28;20412;-92
2021/12/30 10:44:16;;;;;;;1.80;1.02;;;;;;;10.35;100.00;94779.22;5015816;28;20038;-92
2021/12/30 10:46:42;;;;;;;2.42;1.20;;;;;;;10.25;100.00;94785.22;4999905;28;20120;-93
2021/12/30 10:49:09;;;;;;;4.88;1.05;;;;;;;10.30;100.00;94784.44;5026967;28;20064;-92
2021/12/30 10:51:48;;;;;;;1.85;1.02;;;;;;;10.33;100.00;94797.84;5034959;28;20091;-92
2021/12/30 10:54:16;;;;;;;2.95;1.20;;;;;;;10.36;100.00;94793.91;5035445;28;20037;-92
2021/12/30 10:56:44;;;;;;;1.27;0.85;;;;;;;10.39;100.00;94792.59;5035498;28;20541;-92
2021/12/30 10:59:20;;;;;;;2.83;1.10;;;;;;;10.43;100.00;94791.06;5019490;28;20037;-92
2021/12/30 11:02:03;;;;;;;1.60;0.95;;;;;;;10.45;100.00;94792.41;5035395;28;20040;-92
2021/12/30 11:04:32;;;;;;;1.63;1.05;;;;;;;10.52;100.00;94794.78;5019328;28;20033;-91
2021/12/30 11:06:58;;;;;;;3.30;0.90;;;;;;;10.55;100.00;94799.53;5038228;28;20037;-91
2021/12/30 11:09:24;;;;;;;2.00;1.00;;;;;;;10.50;100.00;94799.50;5039413;28;20040;-91
2021/12/30 11:11:58;;;;;;;1.50;0.90;;;;;;;10.50;100.00;94799.50;5054422;28;20060;-91
2021/12/30 11:14:30;;;;;;;1.77;1.05;;;;;;;10.57;100.00;94794.03;5031992;28;20422;-91
2021/12/30 11:17:02;;;;;;;1.10;0.80;;;;;;;10.65;100.00;94796.16;5022540;28;20026;-91
2021/12/30 11:19:40;;;;;;;3.67;1.17;;;;;;;10.79;100.00;94798.28;5003224;28;20030;-91
2021/12/30 11:22:14;;;;;;;4.47;1.10;;;;;;;10.82;100.00;94797.75;5019010;28;20030;-91
2021/12/30 11:24:41;;;;;;;1.88;1.05;;;;;;;10.84;100.00;94795.69;5014968;28;20043;-92
2021/12/30 11:27:10;;;;;;;1.70;0.93;;;;;;;10.83;100.00;94788.84;5059111;28;20029;-92
2021/12/30 11:29:37;;;;;;;1.67;0.90;;;;;;;10.78;100.00;94781.78;5060183;28;20052;-91